Flight Track Log - Related Links

Times and Time Zones

All times are in EST time to prevent confusion due to time zone crossing. See the EJA314 flight status page for this flight to view local times or setup timezone preferences in your user account.

Time Position Orientation Groundspeed Altitude Reporting Facility
EST Latitude Longitude Course Direction KTS MPH feet Rate Location/Type
Fri 03:32:39 PM 33.3269 -82.0300 279° West 223 257 7,200  Level Atlanta Center
Fri 03:33:39 PM 33.3367 -82.1069 279° West 234 269 11,000 3,200 Climbing Atlanta Center
Fri 03:34:39 PM 33.3506 -82.2011 280° West 262 302 13,600 2,950 Climbing Atlanta Center
Fri 03:35:39 PM 33.3603 -82.2978 277° West 280 322 16,900 3,000 Climbing Atlanta Center
Fri 03:36:39 PM 33.3697 -82.3872 277° West 292 336 19,600 2,450 Climbing Atlanta Center
Fri 03:37:39 PM 33.3794 -82.4789 277° West 287 330 21,800 2,050 Climbing Atlanta Center
Fri 03:38:39 PM 33.3950 -82.5658 282° West 282 325 23,700 1,800 Climbing Atlanta Center
Fri 03:39:39 PM 33.4086 -82.6628 280° West 287 330 25,400 1,750 Climbing Atlanta Center
Fri 03:40:39 PM 33.4222 -82.7644 279° West 300 345 27,200 1,700 Climbing Atlanta Center
Fri 03:41:39 PM 33.4361 -82.8789 278° West 313 360 28,800 1,650 Climbing Atlanta Center
Fri 03:42:39 PM 33.4642 -82.9806 288° West 313 360 30,500 1,650 Climbing Atlanta Center
Fri 03:43:39 PM 33.4878 -83.0847 285° West 318 366 32,100 1,700 Climbing Atlanta Center
Fri 03:44:39 PM 33.5136 -83.1867 287° West 325 374 33,900 1,800 Climbing Atlanta Center
Fri 03:45:39 PM 33.5414 -83.2886 288° West 320 368 35,700 1,800 Climbing Atlanta Center
Fri 03:46:39 PM 33.5650 -83.3831 287° West 314 361 37,500 1,800 Climbing Atlanta Center
Fri 03:47:39 PM 33.5883 -83.4778 286° West 299 344 39,300 1,100 Climbing Atlanta Center
Fri 03:48:39 PM 33.6139 -83.5675 289° West 294 338 39,700 350 Climbing Atlanta Center
Fri 03:49:39 PM 33.6372 -83.6644 286° West 299 344 40,000 150 Climbing Atlanta Center
Fri 03:50:39 PM 33.6603 -83.7667 285° West 310 357 40,000  Level Atlanta Center
Fri 03:51:39 PM 33.6836 -83.8617 286° West 323 372 40,000  Level Atlanta Center
Fri 03:52:39 PM 33.7108 -83.9689 287° West 335 386 40,000  Level Atlanta Center
Fri 03:53:39 PM 33.7400 -84.0814 287° West 340 391 40,000  Level Atlanta Center
Fri 03:54:39 PM 33.7669 -84.1911 286° West 340 391 40,000  Level Atlanta Center
Fri 03:55:39 PM 33.7919 -84.3014 285° West 340 391 40,000  Level Atlanta Center
Fri 03:56:39 PM 33.8208 -84.4114 288° West 340 391 40,000  Level Atlanta Center
Fri 03:57:39 PM 33.8497 -84.5317 286° West 340 391 40,000  Level Atlanta Center
Fri 03:58:39 PM 33.8764 -84.6417 286° West 340 391 40,000  Level Atlanta Center
Fri 03:59:39 PM 33.9028 -84.7522 286° West 340 391 40,000  Level Atlanta Center
Fri 04:00:39 PM 33.9253 -84.8500 286° West 341 392 40,000  Level Atlanta Center
Fri 04:01:39 PM 33.9517 -84.9553 287° West 341 392 40,000  Level Atlanta Center
Fri 04:02:39 PM 33.9778 -85.0658 286° West 341 392 40,000  Level Atlanta Center
Fri 04:03:39 PM 34.0019 -85.1739 285° West 341 392 40,000  Level Atlanta Center
Fri 04:04:39 PM 34.0281 -85.2769 287° West 341 392 40,000  Level Atlanta Center
Fri 04:05:39 PM 34.0519 -85.3903 284° West 341 392 40,000  Level Atlanta Center
Fri 04:06:39 PM 34.0797 -85.5086 286° West 341 392 40,000  Level Atlanta Center
Fri 04:07:39 PM 34.1078 -85.6169 287° West 341 392 40,000  Level Atlanta Center
Fri 04:08:39 PM 34.1314 -85.7253 285° West 334 384 40,000  Level Atlanta Center
Fri 04:09:39 PM 34.1508 -85.8161 285° West 326 375 40,000  Level Atlanta Center
Fri 04:10:39 PM 34.1744 -85.9244 285° West 326 375 40,000  Level Atlanta Center
Fri 04:11:39 PM 34.1978 -86.0281 285° West 326 375 40,000  Level Atlanta Center
Fri 04:12:39 PM 34.2211 -86.1339 285° West 321 369 40,000  Level Atlanta Center
Fri 04:13:39 PM 34.2442 -86.2375 285° West 321 369 40,000  Level Atlanta Center
Fri 04:14:39 PM 34.2694 -86.3414 286° West 321 369 40,000  Level Atlanta Center
Fri 04:15:39 PM 34.2903 -86.4475 283° West 321 369 40,000  Level Atlanta Center
Fri 04:16:39 PM 34.3153 -86.5539 286° West 321 369 40,000  Level Atlanta Center
Fri 04:18:11 PM 34.3522 -86.7244 285° West 325 374 40,000  Level Memphis Center
Fri 04:19:13 PM 34.3742 -86.8294 284° West 324 373 40,000  Level Memphis Center
Fri 04:20:15 PM 34.3975 -86.9358 285° West 327 376 40,000  Level Memphis Center
Fri 04:21:17 PM 34.4208 -87.0419 285° West 328 377 40,000  Level Memphis Center
Fri 04:22:19 PM 34.4436 -87.1467 285° West 325 374 40,000  Level Memphis Center
Fri 04:23:21 PM 34.4681 -87.2644 284° West 325 374 40,000  Level Memphis Center
Fri 04:24:23 PM 34.4911 -87.3708 285° West 325 374 40,000  Level Memphis Center
Fri 04:25:25 PM 34.5153 -87.4767 286° West 325 374 40,000  Level Memphis Center
Fri 04:26:27 PM 34.5419 -87.6025 284° West 328 377 40,000  Level Memphis Center
Fri 04:27:29 PM 34.5631 -87.7086 284° West 323 372 40,000  Level Memphis Center
Fri 04:28:31 PM 34.5853 -87.8150 284° West 322 371 40,000  Level Memphis Center
Fri 04:29:33 PM 34.6069 -87.9203 284° West 323 372 40,000  Level Memphis Center
Fri 04:30:36 PM 34.6289 -88.0256 284° West 324 373 40,000  Level Memphis Center
Fri 04:31:38 PM 34.6503 -88.1311 284° West 324 373 40,000  Level Memphis Center
Fri 04:32:40 PM 34.6767 -88.2594 284° West 327 376 40,000  Level Memphis Center
Fri 04:33:42 PM 34.6981 -88.3664 284° West 327 376 40,000  Level Memphis Center
Fri 04:34:44 PM 34.7203 -88.4736 284° West 328 377 40,000  Level Memphis Center
Fri 04:35:46 PM 34.7422 -88.5872 283° West 329 379 40,000  Level Memphis Center
Fri 04:36:48 PM 34.7644 -88.6961 284° West 329 379 40,000  Level Memphis Center
Fri 04:37:50 PM 34.7858 -88.8053 283° West 329 379 40,000  Level Memphis Center
Fri 04:38:52 PM 34.8075 -88.9131 284° West 326 375 40,000  Level Memphis Center
Fri 04:39:54 PM 34.8289 -89.0219 283° West 328 377 40,000  Level Memphis Center
Fri 04:40:56 PM 34.8536 -89.1458 284° West 323 372 40,000  Level Memphis Center
Fri 04:41:58 PM 34.8744 -89.2528 283° West 322 371 40,000  Level Memphis Center
Fri 04:43:00 PM 34.8958 -89.3589 284° West 321 369 40,000  Level Memphis Center
Fri 04:44:02 PM 34.9161 -89.4656 283° West 321 369 40,000  Level Memphis Center
Fri 04:45:04 PM 34.9367 -89.5714 283° West 321 369 40,000  Level Memphis Center
Fri 04:46:07 PM 34.9581 -89.6769 284° West 322 371 40,000  Level Memphis Center
Fri 04:47:09 PM 34.9814 -89.8014 283° West 325 374 40,000  Level Memphis Center
Fri 04:48:11 PM 35.0017 -89.9078 283° West 323 372 40,000  Level Memphis Center
Fri 04:49:13 PM 35.0244 -90.0147 285° West 325 374 40,000  Level Memphis Center
Fri 04:50:15 PM 35.0592 -90.1192 292° West 330 380 40,000  Level Memphis Center
Fri 04:51:17 PM 35.0919 -90.2256 291° West 332 382 40,000  Level Memphis Center
Fri 04:52:19 PM 35.1308 -90.3469 291° West 327 376 40,000  Level Memphis Center
Fri 04:53:21 PM 35.1636 -90.4531 291° West 330 380 40,000  Level Memphis Center
Fri 04:54:23 PM 35.1969 -90.5594 291° West 333 383 40,000  Level Memphis Center
Fri 04:55:25 PM 35.2311 -90.6672 291° West 335 386 40,000  Level Memphis Center
Fri 04:56:27 PM 35.2650 -90.7736 291° West 334 384 40,000  Level Memphis Center
Fri 04:57:29 PM 35.2961 -90.8803 290° West 331 381 40,000  Level Memphis Center
Fri 04:58:31 PM 35.3286 -90.9850 291° West 328 377 40,000  Level Memphis Center
Fri 04:59:34 PM 35.3661 -91.1056 291° West 327 376 40,000  Level Memphis Center
Fri 05:00:36 PM 35.3986 -91.2092 291° West 326 375 40,000  Level Memphis Center
Fri 05:01:38 PM 35.4306 -91.3169 290° West 327 376 40,000  Level Memphis Center
Fri 05:02:40 PM 35.4608 -91.4167 290° West 325 374 40,000  Level Memphis Center
Fri 05:03:42 PM 35.4933 -91.5197 291° West 325 374 40,000  Level Memphis Center
Fri 05:04:44 PM 35.5239 -91.6222 290° West 322 371 40,000  Level Memphis Center
Fri 05:05:46 PM 35.5608 -91.7456 290° West 322 371 40,000  Level Memphis Center
Fri 05:06:48 PM 35.5925 -91.8475 291° West 322 371 40,000 -629 Level Memphis Center
Fri 05:07:50 PM 35.6228 -91.9525 290° West 325 374 38,700 -1,548 Descending Memphis Center
Fri 05:08:52 PM 35.6525 -92.0597 289° West 330 380 36,800 -2,160 Descending Memphis Center
Fri 05:09:55 PM 35.6856 -92.1683 291° West 338 389 34,200 -2,661 Descending Memphis Center
Fri 05:10:56 PM 35.7222 -92.2967 289° West 335 386 31,300 -2,439 Descending Memphis Center
Fri 05:11:58 PM 35.7744 -92.4150 299° West 398 458 29,200 -2,064 Descending Memphis Center
Fri 05:13:01 PM 35.8308 -92.5319 301° West 404 465 27,000 -2,112 Descending Memphis Center
Fri 05:14:03 PM 35.8842 -92.6489 299° West 398 458 24,800 -1,742 Descending Memphis Center
Fri 05:15:05 PM 35.9161 -92.7708 288° West 383 441 23,400 -1,839 Descending Memphis Center
Fri 05:16:07 PM 35.9525 -92.9158 287° West 376 433 21,000 -2,129 Descending Memphis Center
Fri 05:17:09 PM 35.9814 -93.0331 287° West 368 423 19,000 -1,935 Descending Memphis Center
Fri 05:18:11 PM 36.0094 -93.1506 286° West 362 417 17,000 -1,452 Descending Memphis Center
Fri 05:19:13 PM 36.0358 -93.2653 286° West 352 405 16,000 -1,323 Descending Memphis Center
Fri 05:21:17 PM 36.0583 -93.5014 277° West 320 368 12,900 -1,613 Descending Memphis Center
Fri 05:22:19 PM 36.0608 -93.6111 272° West 321 369 11,000 -1,790 Descending Memphis Center
Fri 05:23:21 PM 36.0628 -93.7008 272° West 269 310 9,200 -1,935 Descending Memphis Center
Fri 05:24:23 PM 36.0658 -93.7847 273° West 249 287 7,000 -1,984 Descending Memphis Center
Fri 05:25:25 PM 36.0689 -93.8656 273° West 241 277 5,100 -1,452 Descending Memphis Center
Fri 05:26:27 PM 36.0694 -93.9631 270° West 240 276 4,000 -283 Descending Memphis Center
Fri 05:31:47 PM 36.1534 -94.2504 270° West 144 166 3,300 -131 Descending FlightAware ADS-B
Fri 05:36:00 PM 36.2667 -94.3000 270° West  Level FlightAware Approximate
Fri 05:37:00 PM 36.2816 -94.3078 270° West  Level Estimated
Fri 05:38:00 PM 36.2816 -94.3078 270° West  Level Estimated
Fri 05:39:00 PM 36.2816 -94.3078 270° West  Level Estimated
Fri 05:40:00 PM 36.2816 -94.3078 270° West  Level Estimated
Fri 05:41:00 PM 36.2816 -94.3078 270° West  Level Estimated
Fri 05:42:00 PM 36.2816 -94.3078 270° West  Level Estimated
Fri 05:43:00 PM 36.2816 -94.3078 270° West  Level Estimated

Login

Don't have an account? Register now (free) for customized features, flight alerts, and more!